Accueil
METAR-TAF:

METAR-TAF

Aéroports :

Aéroport de Palerme

Palerme, Italie

latitude: 38-11N, longitude: 013-06E, altitude: 21 m

Observation

Le bulletin a été fait il y a 4 heures et 15 minutes, à 20:50 UTC
Vent 11 kt de ouest/sud-ouest
Température 20°C
Humidité 88%
Pression 1021 hPa
Visibilité 10 km ou plus
pas de nuages en-dessous de 1500 mètres et pas de cumulonimbus.

METAR: LICJ 252050Z 24011KT CAVOK 20/18 Q1021

Heure: 03:05 (01:05 UTC)

Prévision

Le bulletin a été fait il y a 2 heures et 5 minutes, à 23:00 UTC
Prévision valable du 26 à 00 UTC au 26 à 24 UTC
Vent 4 kt de direction variable
Visibilité 10 km ou plus
pas de nuages en-dessous de 1500 mètres et pas de cumulonimbus.
Evoluant progressivement
du 26 à 08 UTC au 26 à 10 UTC
Vent 12 kt de nord-est
Evoluant progressivement
du 26 à 18 UTC au 26 à 20 UTC
Vent 4 kt de direction variable

TAF: LICJ 252300Z 2600/2624 VRB04KT CAVOK BECMG 2608/2610 04012KT BECMG 2618/2620 VRB04KT

Observations et prévisions météorologiques de plus de 4000 aéroports (messages METAR et TAF).

Les stations disponibles sont représentées par des disques jaunes et rouges sur la carte.

Passer la souris dessus pour voir le nom de la station.

Cliquer dessus pour voir les observations et prévisions météorologiques.

Pour changer de carte: cliquez sur les boutons verts avec une croix noire pour zoomer, sur le bouton vert avec un tiret pour effectuer un zoom arrière, ou sur les flèches vertes pour les cartes adjacentes.


METAR-TAF: